sensor_id;sensor_type;location;lat;lon;timestamp;P1;durP1;ratioP1;P2;durP2;ratioP2
12232;SDS011;6179;51.748;8.728;2024-03-17T00:03:45;3.07;;;0.67;;
12232;SDS011;6179;51.748;8.728;2024-03-17T00:09:46;6.47;;;1.43;;
12232;SDS011;6179;51.748;8.728;2024-03-17T00:15:47;2.60;;;0.70;;
12232;SDS011;6179;51.748;8.728;2024-03-17T00:21:48;2.73;;;1.00;;
12232;SDS011;6179;51.748;8.728;2024-03-17T00:27:53;3.63;;;0.80;;
12232;SDS011;6179;51.748;8.728;2024-03-17T00:33:57;6.83;;;1.60;;
12232;SDS011;6179;51.748;8.728;2024-03-17T00:39:58;5.50;;;1.57;;
12232;SDS011;6179;51.748;8.728;2024-03-17T00:46:00;6.00;;;1.20;;
12232;SDS011;6179;51.748;8.728;2024-03-17T00:52:00;6.87;;;1.30;;
12232;SDS011;6179;51.748;8.728;2024-03-17T00:58:01;7.70;;;1.57;;
12232;SDS011;6179;51.748;8.728;2024-03-17T01:04:03;4.90;;;1.20;;
12232;SDS011;6179;51.748;8.728;2024-03-17T01:10:04;5.07;;;0.97;;
12232;SDS011;6179;51.748;8.728;2024-03-17T01:16:08;3.40;;;1.20;;
12232;SDS011;6179;51.748;8.728;2024-03-17T01:22:08;1.63;;;1.33;;
12232;SDS011;6179;51.748;8.728;2024-03-17T01:28:09;13.53;;;2.00;;
12232;SDS011;6179;51.748;8.728;2024-03-17T01:34:09;10.40;;;1.33;;
12232;SDS011;6179;51.748;8.728;2024-03-17T01:40:11;6.30;;;1.80;;
12232;SDS011;6179;51.748;8.728;2024-03-17T01:46:15;5.97;;;2.20;;
12232;SDS011;6179;51.748;8.728;2024-03-17T01:52:17;4.50;;;1.47;;
12232;SDS011;6179;51.748;8.728;2024-03-17T01:58:19;4.83;;;1.80;;
12232;SDS011;6179;51.748;8.728;2024-03-17T02:04:20;2.20;;;1.00;;
12232;SDS011;6179;51.748;8.728;2024-03-17T02:10:22;12.70;;;1.80;;
12232;SDS011;6179;51.748;8.728;2024-03-17T02:16:23;5.57;;;1.80;;
12232;SDS011;6179;51.748;8.728;2024-03-17T02:22:24;1.83;;;1.57;;
12232;SDS011;6179;51.748;8.728;2024-03-17T02:28:25;1.87;;;1.20;;
12232;SDS011;6179;51.748;8.728;2024-03-17T02:34:25;8.73;;;2.70;;
12232;SDS011;6179;51.748;8.728;2024-03-17T02:40:26;2.90;;;1.30;;
12232;SDS011;6179;51.748;8.728;2024-03-17T02:46:27;5.43;;;1.47;;
12232;SDS011;6179;51.748;8.728;2024-03-17T02:52:27;4.17;;;1.87;;
12232;SDS011;6179;51.748;8.728;2024-03-17T02:58:28;5.70;;;2.07;;
12232;SDS011;6179;51.748;8.728;2024-03-17T03:04:29;2.33;;;1.80;;
12232;SDS011;6179;51.748;8.728;2024-03-17T03:10:30;5.30;;;1.83;;
12232;SDS011;6179;51.748;8.728;2024-03-17T03:16:30;5.00;;;1.50;;
12232;SDS011;6179;51.748;8.728;2024-03-17T03:22:31;2.90;;;1.63;;
12232;SDS011;6179;51.748;8.728;2024-03-17T03:28:32;2.50;;;1.70;;
12232;SDS011;6179;51.748;8.728;2024-03-17T03:34:35;3.03;;;1.47;;
12232;SDS011;6179;51.748;8.728;2024-03-17T03:40:36;4.10;;;1.27;;
12232;SDS011;6179;51.748;8.728;2024-03-17T03:46:37;3.03;;;1.50;;
12232;SDS011;6179;51.748;8.728;2024-03-17T03:52:37;2.10;;;1.90;;
12232;SDS011;6179;51.748;8.728;2024-03-17T03:58:41;1.40;;;1.17;;
12232;SDS011;6179;51.748;8.728;2024-03-17T04:04:42;3.60;;;0.97;;
12232;SDS011;6179;51.748;8.728;2024-03-17T04:10:43;3.43;;;1.60;;
12232;SDS011;6179;51.748;8.728;2024-03-17T04:16:44;1.83;;;1.73;;
12232;SDS011;6179;51.748;8.728;2024-03-17T04:22:45;8.37;;;1.17;;
12232;SDS011;6179;51.748;8.728;2024-03-17T04:28:45;2.43;;;1.07;;
12232;SDS011;6179;51.748;8.728;2024-03-17T04:34:46;3.93;;;1.93;;
12232;SDS011;6179;51.748;8.728;2024-03-17T04:40:47;2.60;;;2.20;;
12232;SDS011;6179;51.748;8.728;2024-03-17T04:46:48;1.77;;;0.80;;
12232;SDS011;6179;51.748;8.728;2024-03-17T04:52:49;7.20;;;1.17;;
12232;SDS011;6179;51.748;8.728;2024-03-17T04:58:50;2.30;;;1.30;;
12232;SDS011;6179;51.748;8.728;2024-03-17T05:04:51;4.10;;;1.77;;
12232;SDS011;6179;51.748;8.728;2024-03-17T05:11:01;3.13;;;1.60;;
12232;SDS011;6179;51.748;8.728;2024-03-17T05:17:06;0.90;;;0.80;;
12232;SDS011;6179;51.748;8.728;2024-03-17T05:23:07;2.40;;;0.90;;
12232;SDS011;6179;51.748;8.728;2024-03-17T05:29:07;5.80;;;1.20;;
12232;SDS011;6179;51.748;8.728;2024-03-17T05:35:09;2.43;;;1.90;;
12232;SDS011;6179;51.748;8.728;2024-03-17T05:41:10;2.73;;;1.10;;
12232;SDS011;6179;51.748;8.728;2024-03-17T05:47:11;5.57;;;2.10;;
12232;SDS011;6179;51.748;8.728;2024-03-17T05:53:12;1.90;;;1.80;;
12232;SDS011;6179;51.748;8.728;2024-03-17T05:59:13;1.90;;;1.00;;
12232;SDS011;6179;51.748;8.728;2024-03-17T06:05:14;2.03;;;1.83;;
12232;SDS011;6179;51.748;8.728;2024-03-17T06:11:14;4.60;;;2.03;;
12232;SDS011;6179;51.748;8.728;2024-03-17T06:17:15;7.70;;;4.20;;
12232;SDS011;6179;51.748;8.728;2024-03-17T06:23:16;4.37;;;2.83;;
12232;SDS011;6179;51.748;8.728;2024-03-17T06:29:16;3.40;;;2.13;;
12232;SDS011;6179;51.748;8.728;2024-03-17T06:35:17;6.13;;;3.90;;
12232;SDS011;6179;51.748;8.728;2024-03-17T06:41:18;4.67;;;2.20;;
12232;SDS011;6179;51.748;8.728;2024-03-17T06:47:18;3.60;;;2.03;;
12232;SDS011;6179;51.748;8.728;2024-03-17T06:53:20;16.10;;;2.90;;
12232;SDS011;6179;51.748;8.728;2024-03-17T06:59:21;13.43;;;2.90;;
12232;SDS011;6179;51.748;8.728;2024-03-17T07:05:22;4.63;;;2.83;;
12232;SDS011;6179;51.748;8.728;2024-03-17T07:11:23;9.87;;;2.80;;
12232;SDS011;6179;51.748;8.728;2024-03-17T07:17:24;9.10;;;3.10;;
12232;SDS011;6179;51.748;8.728;2024-03-17T07:23:25;8.47;;;5.00;;
12232;SDS011;6179;51.748;8.728;2024-03-17T07:29:26;9.67;;;4.80;;
12232;SDS011;6179;51.748;8.728;2024-03-17T07:35:27;7.63;;;3.80;;
12232;SDS011;6179;51.748;8.728;2024-03-17T07:41:27;7.80;;;4.43;;
12232;SDS011;6179;51.748;8.728;2024-03-17T07:47:28;13.93;;;5.00;;
12232;SDS011;6179;51.748;8.728;2024-03-17T07:53:36;10.60;;;6.03;;
12232;SDS011;6179;51.748;8.728;2024-03-17T07:59:37;11.57;;;5.50;;
12232;SDS011;6179;51.748;8.728;2024-03-17T08:05:38;6.43;;;4.47;;
12232;SDS011;6179;51.748;8.728;2024-03-17T08:11:39;18.90;;;5.10;;
12232;SDS011;6179;51.748;8.728;2024-03-17T08:17:46;9.60;;;5.37;;
12232;SDS011;6179;51.748;8.728;2024-03-17T08:23:46;5.90;;;3.90;;
12232;SDS011;6179;51.748;8.728;2024-03-17T08:29:47;8.60;;;4.80;;
12232;SDS011;6179;51.748;8.728;2024-03-17T08:35:57;9.00;;;4.50;;
12232;SDS011;6179;51.748;8.728;2024-03-17T08:42:00;9.93;;;3.33;;
12232;SDS011;6179;51.748;8.728;2024-03-17T08:48:00;5.03;;;2.90;;
12232;SDS011;6179;51.748;8.728;2024-03-17T08:54:01;14.13;;;4.10;;
12232;SDS011;6179;51.748;8.728;2024-03-17T09:00:02;11.70;;;5.13;;
12232;SDS011;6179;51.748;8.728;2024-03-17T09:06:03;10.17;;;4.73;;
12232;SDS011;6179;51.748;8.728;2024-03-17T09:12:04;13.53;;;5.40;;
12232;SDS011;6179;51.748;8.728;2024-03-17T09:18:05;9.20;;;4.20;;
12232;SDS011;6179;51.748;8.728;2024-03-17T09:24:06;11.47;;;6.07;;
12232;SDS011;6179;51.748;8.728;2024-03-17T09:30:11;22.53;;;6.50;;
12232;SDS011;6179;51.748;8.728;2024-03-17T09:36:12;7.60;;;4.70;;
12232;SDS011;6179;51.748;8.728;2024-03-17T09:42:16;9.20;;;5.40;;
12232;SDS011;6179;51.748;8.728;2024-03-17T09:48:18;10.83;;;5.80;;
12232;SDS011;6179;51.748;8.728;2024-03-17T09:54:19;10.37;;;5.20;;
12232;SDS011;6179;51.748;8.728;2024-03-17T10:00:20;8.73;;;6.20;;
12232;SDS011;6179;51.748;8.728;2024-03-17T10:06:21;10.57;;;5.03;;
12232;SDS011;6179;51.748;8.728;2024-03-17T10:12:29;8.00;;;4.70;;
12232;SDS011;6179;51.748;8.728;2024-03-17T10:18:30;4.90;;;3.90;;
12232;SDS011;6179;51.748;8.728;2024-03-17T10:24:31;6.37;;;4.10;;
12232;SDS011;6179;51.748;8.728;2024-03-17T10:30:34;6.53;;;4.13;;
12232;SDS011;6179;51.748;8.728;2024-03-17T10:36:34;6.57;;;4.67;;
12232;SDS011;6179;51.748;8.728;2024-03-17T10:42:35;11.00;;;5.00;;
12232;SDS011;6179;51.748;8.728;2024-03-17T10:48:38;7.93;;;5.23;;
12232;SDS011;6179;51.748;8.728;2024-03-17T10:54:40;11.87;;;6.57;;
12232;SDS011;6179;51.748;8.728;2024-03-17T11:00:45;6.60;;;4.73;;
12232;SDS011;6179;51.748;8.728;2024-03-17T11:06:47;7.00;;;4.23;;
12232;SDS011;6179;51.748;8.728;2024-03-17T11:19:05;10.73;;;4.50;;
12232;SDS011;6179;51.748;8.728;2024-03-17T11:37:42;6.10;;;3.23;;
12232;SDS011;6179;51.748;8.728;2024-03-17T11:43:43;4.00;;;3.20;;
12232;SDS011;6179;51.748;8.728;2024-03-17T11:49:44;2.60;;;2.33;;
12232;SDS011;6179;51.748;8.728;2024-03-17T11:55:49;6.17;;;2.73;;
12232;SDS011;6179;51.748;8.728;2024-03-17T12:01:50;4.00;;;2.67;;
12232;SDS011;6179;51.748;8.728;2024-03-17T12:07:50;11.10;;;3.00;;
12232;SDS011;6179;51.748;8.728;2024-03-17T12:13:54;13.57;;;3.97;;
12232;SDS011;6179;51.748;8.728;2024-03-17T12:19:56;4.50;;;3.50;;
12232;SDS011;6179;51.748;8.728;2024-03-17T12:25:58;11.30;;;4.03;;
12232;SDS011;6179;51.748;8.728;2024-03-17T12:32:02;6.93;;;2.83;;
12232;SDS011;6179;51.748;8.728;2024-03-17T12:38:21;8.37;;;3.90;;
12232;SDS011;6179;51.748;8.728;2024-03-17T12:44:22;16.70;;;3.93;;
12232;SDS011;6179;51.748;8.728;2024-03-17T12:50:23;5.27;;;3.20;;
12232;SDS011;6179;51.748;8.728;2024-03-17T12:56:24;5.70;;;3.57;;
12232;SDS011;6179;51.748;8.728;2024-03-17T13:02:44;4.07;;;2.87;;
12232;SDS011;6179;51.748;8.728;2024-03-17T13:08:45;10.63;;;3.47;;
12232;SDS011;6179;51.748;8.728;2024-03-17T13:14:46;8.60;;;4.67;;
12232;SDS011;6179;51.748;8.728;2024-03-17T13:20:46;17.77;;;3.80;;
12232;SDS011;6179;51.748;8.728;2024-03-17T13:26:49;13.47;;;4.43;;
12232;SDS011;6179;51.748;8.728;2024-03-17T13:32:50;12.93;;;3.07;;
12232;SDS011;6179;51.748;8.728;2024-03-17T13:39:00;4.63;;;3.30;;
12232;SDS011;6179;51.748;8.728;2024-03-17T13:45:00;13.17;;;4.10;;
12232;SDS011;6179;51.748;8.728;2024-03-17T13:51:01;9.03;;;2.97;;
12232;SDS011;6179;51.748;8.728;2024-03-17T13:57:04;21.93;;;3.43;;
12232;SDS011;6179;51.748;8.728;2024-03-17T14:03:05;8.00;;;3.60;;
12232;SDS011;6179;51.748;8.728;2024-03-17T14:09:06;11.43;;;3.30;;
12232;SDS011;6179;51.748;8.728;2024-03-17T14:15:09;6.40;;;4.13;;
12232;SDS011;6179;51.748;8.728;2024-03-17T14:21:12;6.73;;;4.37;;
12232;SDS011;6179;51.748;8.728;2024-03-17T14:27:12;5.67;;;3.73;;
12232;SDS011;6179;51.748;8.728;2024-03-17T14:33:13;18.03;;;4.97;;
12232;SDS011;6179;51.748;8.728;2024-03-17T14:39:14;4.17;;;3.60;;
12232;SDS011;6179;51.748;8.728;2024-03-17T14:45:16;4.43;;;3.20;;
12232;SDS011;6179;51.748;8.728;2024-03-17T14:51:20;8.87;;;3.13;;
12232;SDS011;6179;51.748;8.728;2024-03-17T14:57:21;5.70;;;3.50;;
12232;SDS011;6179;51.748;8.728;2024-03-17T15:03:22;9.70;;;3.70;;
12232;SDS011;6179;51.748;8.728;2024-03-17T15:09:22;6.23;;;3.70;;
12232;SDS011;6179;51.748;8.728;2024-03-17T15:15:23;6.00;;;2.87;;
12232;SDS011;6179;51.748;8.728;2024-03-17T15:21:23;8.93;;;3.60;;
12232;SDS011;6179;51.748;8.728;2024-03-17T15:27:25;7.73;;;3.67;;
12232;SDS011;6179;51.748;8.728;2024-03-17T15:33:26;8.93;;;3.27;;
12232;SDS011;6179;51.748;8.728;2024-03-17T15:39:26;5.67;;;3.53;;
12232;SDS011;6179;51.748;8.728;2024-03-17T15:45:28;4.90;;;3.03;;
12232;SDS011;6179;51.748;8.728;2024-03-17T15:51:28;4.43;;;3.10;;
12232;SDS011;6179;51.748;8.728;2024-03-17T15:57:29;4.67;;;2.30;;
12232;SDS011;6179;51.748;8.728;2024-03-17T16:03:30;3.67;;;1.70;;
12232;SDS011;6179;51.748;8.728;2024-03-17T16:09:32;2.40;;;2.20;;
12232;SDS011;6179;51.748;8.728;2024-03-17T16:15:33;4.40;;;1.97;;
12232;SDS011;6179;51.748;8.728;2024-03-17T16:21:34;6.50;;;3.37;;
12232;SDS011;6179;51.748;8.728;2024-03-17T16:27:34;2.00;;;1.83;;
12232;SDS011;6179;51.748;8.728;2024-03-17T16:33:35;6.00;;;2.50;;
12232;SDS011;6179;51.748;8.728;2024-03-17T16:39:37;3.27;;;1.67;;
12232;SDS011;6179;51.748;8.728;2024-03-17T16:45:40;5.30;;;2.27;;
12232;SDS011;6179;51.748;8.728;2024-03-17T16:51:45;8.40;;;2.63;;
12232;SDS011;6179;51.748;8.728;2024-03-17T16:57:45;2.93;;;2.13;;
12232;SDS011;6179;51.748;8.728;2024-03-17T17:03:46;11.93;;;2.40;;
12232;SDS011;6179;51.748;8.728;2024-03-17T17:09:47;6.00;;;3.10;;
12232;SDS011;6179;51.748;8.728;2024-03-17T17:15:47;6.27;;;3.60;;
12232;SDS011;6179;51.748;8.728;2024-03-17T17:21:48;6.50;;;2.67;;
12232;SDS011;6179;51.748;8.728;2024-03-17T17:27:53;10.07;;;3.20;;
12232;SDS011;6179;51.748;8.728;2024-03-17T17:33:57;7.00;;;2.33;;
12232;SDS011;6179;51.748;8.728;2024-03-17T17:39:58;7.87;;;2.63;;
12232;SDS011;6179;51.748;8.728;2024-03-17T17:46:01;1.60;;;1.50;;
12232;SDS011;6179;51.748;8.728;2024-03-17T17:52:03;11.70;;;4.00;;
12232;SDS011;6179;51.748;8.728;2024-03-17T17:58:03;9.70;;;3.97;;
12232;SDS011;6179;51.748;8.728;2024-03-17T18:04:04;4.47;;;2.97;;
12232;SDS011;6179;51.748;8.728;2024-03-17T18:10:06;4.97;;;3.07;;
12232;SDS011;6179;51.748;8.728;2024-03-17T18:16:07;5.40;;;2.60;;
12232;SDS011;6179;51.748;8.728;2024-03-17T18:22:07;24.77;;;4.00;;
12232;SDS011;6179;51.748;8.728;2024-03-17T18:28:08;5.70;;;2.50;;
12232;SDS011;6179;51.748;8.728;2024-03-17T18:34:08;6.53;;;2.40;;
12232;SDS011;6179;51.748;8.728;2024-03-17T18:40:09;3.43;;;2.63;;
12232;SDS011;6179;51.748;8.728;2024-03-17T18:46:11;5.63;;;3.90;;
12232;SDS011;6179;51.748;8.728;2024-03-17T18:52:13;8.93;;;5.50;;
12232;SDS011;6179;51.748;8.728;2024-03-17T18:58:15;8.80;;;4.50;;
12232;SDS011;6179;51.748;8.728;2024-03-17T19:04:16;20.60;;;4.83;;
12232;SDS011;6179;51.748;8.728;2024-03-17T19:10:17;5.70;;;3.70;;
12232;SDS011;6179;51.748;8.728;2024-03-17T19:16:19;7.20;;;5.07;;
12232;SDS011;6179;51.748;8.728;2024-03-17T19:22:21;8.70;;;3.97;;
12232;SDS011;6179;51.748;8.728;2024-03-17T19:28:23;10.10;;;5.70;;
12232;SDS011;6179;51.748;8.728;2024-03-17T19:34:25;6.40;;;4.03;;
12232;SDS011;6179;51.748;8.728;2024-03-17T19:40:26;11.17;;;5.30;;
12232;SDS011;6179;51.748;8.728;2024-03-17T19:46:28;10.30;;;5.63;;
12232;SDS011;6179;51.748;8.728;2024-03-17T19:52:29;17.40;;;5.10;;
12232;SDS011;6179;51.748;8.728;2024-03-17T19:58:30;14.03;;;5.03;;
12232;SDS011;6179;51.748;8.728;2024-03-17T20:04:30;9.00;;;5.03;;
12232;SDS011;6179;51.748;8.728;2024-03-17T20:10:31;8.90;;;5.90;;
12232;SDS011;6179;51.748;8.728;2024-03-17T20:16:32;12.43;;;5.23;;
12232;SDS011;6179;51.748;8.728;2024-03-17T20:22:37;11.57;;;5.97;;
12232;SDS011;6179;51.748;8.728;2024-03-17T20:28:38;9.00;;;4.47;;
12232;SDS011;6179;51.748;8.728;2024-03-17T20:34:39;5.60;;;3.40;;
12232;SDS011;6179;51.748;8.728;2024-03-17T20:40:40;10.83;;;5.20;;
12232;SDS011;6179;51.748;8.728;2024-03-17T20:46:41;3.27;;;2.67;;
12232;SDS011;6179;51.748;8.728;2024-03-17T20:52:42;3.47;;;2.73;;
12232;SDS011;6179;51.748;8.728;2024-03-17T20:58:43;3.13;;;2.83;;
12232;SDS011;6179;51.748;8.728;2024-03-17T21:04:44;8.80;;;3.23;;
12232;SDS011;6179;51.748;8.728;2024-03-17T21:10:45;4.73;;;3.33;;
12232;SDS011;6179;51.748;8.728;2024-03-17T21:16:45;7.33;;;3.43;;
12232;SDS011;6179;51.748;8.728;2024-03-17T21:22:46;5.27;;;3.23;;
12232;SDS011;6179;51.748;8.728;2024-03-17T21:28:48;4.40;;;2.00;;
12232;SDS011;6179;51.748;8.728;2024-03-17T21:34:52;6.40;;;3.27;;
12232;SDS011;6179;51.748;8.728;2024-03-17T21:40:54;10.87;;;3.17;;
12232;SDS011;6179;51.748;8.728;2024-03-17T21:46:55;3.43;;;2.27;;
12232;SDS011;6179;51.748;8.728;2024-03-17T21:52:57;4.20;;;2.80;;
12232;SDS011;6179;51.748;8.728;2024-03-17T21:58:57;10.60;;;3.57;;
12232;SDS011;6179;51.748;8.728;2024-03-17T22:04:58;7.03;;;2.73;;
12232;SDS011;6179;51.748;8.728;2024-03-17T22:10:59;7.03;;;2.93;;
12232;SDS011;6179;51.748;8.728;2024-03-17T22:16:59;13.93;;;3.20;;
12232;SDS011;6179;51.748;8.728;2024-03-17T22:23:02;4.70;;;2.67;;
12232;SDS011;6179;51.748;8.728;2024-03-17T22:29:03;5.70;;;1.80;;
12232;SDS011;6179;51.748;8.728;2024-03-17T22:35:04;8.73;;;2.87;;
12232;SDS011;6179;51.748;8.728;2024-03-17T22:41:05;5.87;;;2.20;;
12232;SDS011;6179;51.748;8.728;2024-03-17T22:47:08;2.90;;;2.13;;
12232;SDS011;6179;51.748;8.728;2024-03-17T22:53:08;14.20;;;3.30;;
12232;SDS011;6179;51.748;8.728;2024-03-17T22:59:09;6.30;;;3.20;;
12232;SDS011;6179;51.748;8.728;2024-03-17T23:05:10;3.17;;;2.87;;
12232;SDS011;6179;51.748;8.728;2024-03-17T23:11:10;9.67;;;3.17;;
12232;SDS011;6179;51.748;8.728;2024-03-17T23:17:11;4.83;;;1.87;;
12232;SDS011;6179;51.748;8.728;2024-03-17T23:23:12;7.20;;;2.10;;
12232;SDS011;6179;51.748;8.728;2024-03-17T23:29:12;6.03;;;2.87;;
12232;SDS011;6179;51.748;8.728;2024-03-17T23:35:13;2.80;;;2.07;;
12232;SDS011;6179;51.748;8.728;2024-03-17T23:41:14;5.73;;;2.80;;
12232;SDS011;6179;51.748;8.728;2024-03-17T23:47:14;4.20;;;2.90;;
12232;SDS011;6179;51.748;8.728;2024-03-17T23:53:15;13.20;;;3.07;;
12232;SDS011;6179;51.748;8.728;2024-03-17T23:59:16;4.63;;;3.20;;
